createdAt,value
2023-01-11T00:00:04.899Z,18.43
2023-01-11T00:02:34.563Z,20.93
2023-01-11T00:05:02.218Z,16.87
2023-01-11T00:07:29.875Z,15.73
2023-01-11T00:09:57.942Z,9.17
2023-01-11T00:12:26.068Z,12.97
2023-01-11T00:14:54.445Z,7.23
2023-01-11T00:17:22.159Z,8.40
2023-01-11T00:19:50.074Z,8.13
2023-01-11T00:22:17.749Z,8.07
2023-01-11T00:24:45.097Z,10.57
2023-01-11T00:27:13.367Z,10.47
2023-01-11T00:29:41.526Z,9.73
2023-01-11T00:32:08.906Z,11.77
2023-01-11T00:34:36.870Z,12.30
2023-01-11T00:37:04.574Z,11.57
2023-01-11T00:39:32.269Z,10.30
2023-01-11T00:42:18.186Z,13.93
2023-01-11T00:45:04.547Z,10.73
2023-01-11T00:47:51.037Z,11.00
2023-01-11T00:50:19.072Z,16.53
2023-01-11T00:52:47.207Z,11.73
2023-01-11T00:55:15.462Z,10.53
2023-01-11T00:57:43.352Z,10.10
2023-01-11T01:00:13.158Z,12.67
2023-01-11T01:02:41.125Z,10.67
2023-01-11T01:05:10.216Z,9.77
2023-01-11T01:07:38.024Z,15.73
2023-01-11T01:10:07.774Z,14.60
2023-01-11T01:12:54.491Z,11.33
2023-01-11T01:15:22.140Z,10.90
2023-01-11T01:17:50.206Z,12.47
2023-01-11T01:20:18.313Z,9.87
2023-01-11T01:22:46.035Z,13.27
2023-01-11T01:25:13.881Z,11.37
2023-01-11T01:27:41.473Z,9.60
2023-01-11T01:30:10.472Z,13.43
2023-01-11T01:32:38.435Z,10.63
2023-01-11T01:35:08.414Z,15.60
2023-01-11T01:37:35.884Z,11.83
2023-01-11T01:40:04.266Z,13.33
2023-01-11T01:42:32.094Z,12.53
2023-01-11T01:45:03.514Z,12.70
2023-01-11T01:47:36.565Z,9.67
2023-01-11T01:50:15.672Z,14.63
2023-01-11T01:52:43.353Z,11.60
2023-01-11T01:55:12.086Z,10.70
2023-01-11T01:57:40.625Z,8.90
2023-01-11T02:00:10.746Z,11.20
2023-01-11T02:02:38.117Z,12.33
2023-01-11T02:05:05.730Z,11.00
2023-01-11T02:07:34.364Z,13.40
2023-01-11T02:10:09.425Z,12.17
2023-01-11T02:12:42.801Z,14.57
2023-01-11T02:15:10.490Z,11.30
2023-01-11T02:17:39.223Z,10.93
2023-01-11T02:20:09.045Z,14.20
2023-01-11T02:23:00.526Z,12.70
2023-01-11T02:25:32.958Z,14.90
2023-01-11T02:28:13.164Z,9.97
2023-01-11T02:31:08.919Z,10.87
2023-01-11T02:34:10.016Z,8.43
2023-01-11T02:36:55.393Z,15.43
2023-01-11T02:39:31.153Z,12.03
2023-01-11T02:42:34.305Z,8.13
2023-01-11T02:45:24.717Z,12.03
2023-01-11T02:47:56.107Z,8.43
2023-01-11T02:50:35.195Z,8.80
2023-01-11T02:53:09.302Z,9.30
2023-01-11T02:55:41.500Z,11.30
2023-01-11T02:58:11.287Z,11.23
2023-01-11T03:00:41.815Z,9.60
2023-01-11T03:03:13.700Z,9.23
2023-01-11T03:05:47.019Z,6.87
2023-01-11T03:08:47.257Z,9.30
2023-01-11T03:11:39.029Z,8.07
2023-01-11T03:14:32.248Z,13.87
2023-01-11T03:17:23.846Z,13.63
2023-01-11T03:19:55.172Z,9.27
2023-01-11T03:23:01.052Z,8.90
2023-01-11T03:25:42.312Z,8.87
2023-01-11T03:28:48.033Z,10.63
2023-01-11T03:31:54.801Z,10.73
2023-01-11T03:34:42.671Z,12.20
2023-01-11T03:39:54.107Z,9.10
2023-01-11T03:42:21.254Z,9.30
2023-01-11T03:44:52.555Z,8.33
2023-01-11T03:47:19.603Z,10.03
2023-01-11T03:50:00.761Z,11.50
2023-01-11T03:52:31.388Z,9.07
2023-01-11T03:54:59.017Z,11.93
2023-01-11T03:57:34.437Z,16.10
2023-01-11T04:00:02.452Z,8.13
2023-01-11T04:02:39.358Z,9.33
2023-01-11T04:05:09.835Z,9.10
2023-01-11T04:07:37.796Z,13.97
2023-01-11T04:10:07.912Z,9.97
2023-01-11T04:12:35.942Z,10.13
2023-01-11T04:15:05.250Z,11.10
2023-01-11T04:17:33.680Z,10.80
2023-01-11T04:20:01.712Z,11.53
2023-01-11T04:22:29.328Z,13.83
2023-01-11T04:24:57.371Z,11.23
2023-01-11T04:27:25.220Z,9.80
2023-01-11T04:29:53.058Z,11.50
2023-01-11T04:32:21.233Z,9.80
2023-01-11T04:34:48.869Z,13.93
2023-01-11T04:37:16.794Z,7.10
2023-01-11T04:39:44.870Z,9.83
2023-01-11T04:42:21.278Z,12.13
2023-01-11T04:44:49.538Z,9.35
2023-01-11T04:47:17.626Z,14.77
2023-01-11T04:49:45.908Z,8.10
2023-01-11T04:52:14.259Z,9.00
2023-01-11T04:54:42.377Z,10.67
2023-01-11T04:57:12.329Z,10.53
2023-01-11T04:59:40.358Z,11.77
2023-01-11T05:02:07.959Z,10.43
2023-01-11T05:04:35.582Z,12.33
2023-01-11T05:07:03.773Z,11.47
2023-01-11T05:09:32.100Z,12.13
2023-01-11T05:12:00.122Z,12.33
2023-01-11T05:14:28.403Z,11.23
2023-01-11T05:16:56.069Z,14.67
2023-01-11T05:19:24.335Z,16.37
2023-01-11T05:22:07.975Z,12.67
2023-01-11T05:24:36.308Z,11.93
2023-01-11T05:27:04.543Z,15.07
2023-01-11T05:29:32.905Z,11.57
2023-01-11T05:32:01.076Z,14.57
2023-01-11T05:34:29.358Z,12.13
2023-01-11T05:36:57.726Z,11.90
2023-01-11T05:39:26.236Z,10.17
2023-01-11T05:41:54.137Z,10.63
2023-01-11T05:44:40.002Z,15.27
2023-01-11T05:47:07.985Z,9.07
2023-01-11T05:49:35.581Z,12.13
2023-01-11T05:52:03.444Z,13.50
2023-01-11T05:54:31.569Z,10.00
2023-01-11T05:56:59.576Z,10.03
2023-01-11T05:59:27.152Z,7.73
2023-01-11T06:01:54.902Z,8.53
2023-01-11T06:04:23.205Z,8.70
2023-01-11T06:06:51.448Z,12.97
2023-01-11T06:09:19.507Z,11.23
2023-01-11T06:11:48.222Z,11.87
2023-01-11T06:14:15.773Z,14.83
2023-01-11T06:16:43.797Z,10.57
2023-01-11T06:19:11.885Z,7.77
2023-01-11T06:21:39.860Z,9.07
2023-01-11T06:24:08.793Z,11.07
2023-01-11T06:26:36.797Z,9.80
2023-01-11T06:29:04.938Z,11.57
2023-01-11T06:31:32.905Z,10.37
2023-01-11T06:34:00.939Z,10.13
2023-01-11T06:36:29.824Z,10.40
2023-01-11T06:38:58.099Z,8.90
2023-01-11T06:41:25.169Z,10.17
2023-01-11T06:43:54.015Z,10.40
2023-01-11T06:46:21.861Z,13.57
2023-01-11T06:48:49.062Z,13.50
2023-01-11T06:51:16.403Z,14.13
2023-01-11T06:53:43.612Z,16.23
2023-01-11T06:56:17.626Z,18.70
2023-01-11T06:58:46.943Z,21.80
2023-01-11T07:01:15.754Z,22.07
2023-01-11T07:03:43.896Z,21.07
2023-01-11T07:06:11.930Z,19.83
2023-01-11T07:08:40.059Z,17.03
2023-01-11T07:11:07.787Z,20.10
2023-01-11T07:13:35.742Z,18.57
2023-01-11T07:16:03.964Z,21.67
2023-01-11T07:18:31.905Z,21.73
2023-01-11T07:21:00.175Z,25.20
2023-01-11T07:23:27.612Z,16.33
2023-01-11T07:25:55.496Z,20.57
2023-01-11T07:28:23.229Z,16.00
2023-01-11T07:30:59.790Z,20.33
2023-01-11T07:33:28.416Z,21.92
2023-01-11T07:35:56.284Z,17.93
2023-01-11T07:38:24.040Z,20.50
2023-01-11T07:40:52.153Z,19.97
2023-01-11T07:43:22.997Z,26.93
2023-01-11T07:45:52.686Z,19.20
2023-01-11T07:48:45.066Z,18.50
2023-01-11T07:51:13.448Z,19.67
2023-01-11T07:53:41.542Z,21.13
2023-01-11T07:56:09.570Z,15.47
2023-01-11T07:58:37.642Z,15.63
2023-01-11T08:01:06.006Z,12.67
2023-01-11T08:03:33.608Z,15.63
2023-01-11T08:06:01.579Z,17.20
2023-01-11T08:08:29.790Z,15.97
2023-01-11T08:11:15.604Z,13.20
2023-01-11T08:14:01.422Z,16.13
2023-01-11T08:16:29.428Z,17.67
2023-01-11T08:18:57.138Z,10.77
2023-01-11T08:21:25.083Z,12.17
2023-01-11T08:23:55.266Z,15.10
2023-01-11T08:26:26.165Z,17.73
2023-01-11T08:28:54.582Z,11.30
2023-01-11T08:31:22.134Z,12.77
2023-01-11T08:33:50.056Z,9.63
2023-01-11T08:36:18.007Z,13.20
2023-01-11T08:38:45.844Z,11.90
2023-01-11T08:41:14.801Z,16.80
2023-01-11T08:43:43.206Z,13.27
2023-01-11T08:46:11.603Z,11.30
2023-01-11T08:48:39.214Z,11.77
2023-01-11T08:51:07.240Z,20.20
2023-01-11T08:53:34.630Z,14.87
2023-01-11T08:56:02.832Z,8.47
2023-01-11T08:58:30.408Z,9.17
2023-01-11T09:01:02.831Z,13.47
2023-01-11T09:03:31.101Z,16.60
2023-01-11T09:05:59.193Z,9.83
2023-01-11T09:08:27.315Z,12.60
2023-01-11T09:10:56.448Z,14.10
2023-01-11T09:13:23.999Z,11.53
2023-01-11T09:15:55.585Z,15.33
2023-01-11T09:18:22.751Z,13.50
2023-01-11T09:20:52.620Z,13.37
2023-01-11T09:23:20.787Z,11.77
2023-01-11T09:25:48.409Z,14.73
2023-01-11T09:28:16.225Z,10.53
2023-01-11T09:30:44.193Z,10.47
2023-01-11T09:33:12.016Z,32.83
2023-01-11T09:35:42.325Z,26.37
2023-01-11T09:38:09.458Z,20.70
2023-01-11T09:40:46.259Z,14.10
2023-01-11T09:43:15.154Z,8.50
2023-01-11T09:45:47.036Z,14.50
2023-01-11T09:48:35.234Z,20.13
2023-01-11T09:51:02.800Z,15.17
2023-01-11T09:53:34.880Z,22.90
2023-01-11T09:56:05.123Z,17.00
2023-01-11T09:58:38.737Z,15.47
2023-01-11T10:01:11.277Z,13.33
2023-01-11T10:03:43.871Z,14.57
2023-01-11T10:06:23.416Z,15.63
2023-01-11T10:18:29.798Z,13.47
2023-01-11T10:19:24.830Z,15.50
2023-01-11T10:21:54.566Z,15.67
2023-01-11T10:24:25.326Z,10.70
2023-01-11T10:26:55.051Z,11.53
2023-01-11T10:29:40.460Z,17.77
2023-01-11T10:32:26.195Z,13.30
2023-01-11T10:34:59.590Z,14.20
2023-01-11T10:37:50.529Z,15.33
2023-01-11T10:40:35.430Z,12.97
2023-01-11T10:43:09.220Z,14.03
2023-01-11T10:45:50.497Z,9.37
2023-01-11T10:48:34.324Z,8.57
2023-01-11T10:51:27.919Z,8.37
2023-01-11T10:54:18.180Z,9.27
2023-01-11T10:57:02.519Z,9.87
2023-01-11T11:00:01.443Z,11.53
2023-01-11T11:03:05.784Z,8.55
2023-01-11T11:05:34.506Z,9.20
2023-01-11T11:08:18.214Z,11.43
2023-01-11T11:11:00.862Z,7.77
2023-01-11T11:13:45.776Z,11.07
2023-01-11T11:16:25.170Z,11.07
2023-01-11T11:18:53.991Z,10.57
2023-01-11T11:21:30.006Z,11.57
2023-01-11T11:24:06.640Z,10.47
2023-01-11T11:26:41.549Z,8.00
2023-01-11T11:29:10.881Z,11.13
2023-01-11T11:31:42.207Z,13.83
2023-01-11T11:34:18.582Z,11.07
2023-01-11T11:36:48.310Z,7.77
2023-01-11T11:39:31.047Z,11.17
2023-01-11T11:42:05.722Z,17.27
2023-01-11T11:44:33.566Z,20.50
2023-01-11T11:47:01.663Z,18.07
2023-01-11T11:49:40.077Z,16.87
2023-01-11T11:52:07.722Z,14.77
2023-01-11T11:54:36.500Z,17.03
2023-01-11T11:57:23.398Z,16.20
2023-01-11T11:59:53.804Z,14.95
2023-01-11T12:02:31.142Z,10.10
2023-01-11T12:04:59.380Z,10.77
2023-01-11T12:07:28.257Z,12.20
2023-01-11T12:10:03.929Z,10.77
2023-01-11T12:12:32.888Z,12.77
2023-01-11T12:15:18.799Z,12.23
2023-01-11T12:17:46.563Z,12.50
2023-01-11T12:20:22.879Z,12.70
2023-01-11T12:22:51.774Z,18.08
2023-01-11T12:25:25.260Z,9.50
2023-01-11T12:28:17.602Z,13.50
2023-01-11T12:30:50.488Z,10.30
2023-01-11T12:34:17.377Z,15.97
2023-01-11T12:36:47.127Z,11.20
2023-01-11T12:39:29.472Z,10.60
2023-01-11T12:42:03.003Z,8.30
2023-01-11T12:44:38.617Z,8.77
2023-01-11T12:47:33.666Z,9.17
2023-01-11T12:50:06.476Z,9.10
2023-01-11T12:52:54.015Z,11.23
2023-01-11T12:55:56.193Z,10.23
2023-01-11T12:58:25.717Z,6.73
2023-01-11T13:01:23.386Z,6.37
2023-01-11T13:03:56.532Z,8.40
2023-01-11T13:06:57.377Z,8.33
2023-01-11T13:09:56.794Z,5.53
2023-01-11T13:12:31.799Z,7.47
2023-01-11T13:15:26.635Z,6.00
2023-01-11T13:18:05.512Z,6.57
2023-01-11T13:20:48.638Z,4.90
2023-01-11T13:23:40.438Z,5.27
2023-01-11T13:26:23.090Z,6.78
2023-01-11T13:29:04.450Z,10.73
2023-01-11T13:31:33.548Z,5.83
2023-01-11T13:34:27.595Z,6.07
2023-01-11T13:37:16.959Z,5.70
2023-01-11T13:40:03.647Z,6.90
2023-01-11T13:42:58.721Z,6.47
2023-01-11T13:45:32.692Z,5.60
2023-01-11T13:48:28.719Z,5.90
2023-01-11T13:51:36.160Z,5.77
2023-01-11T13:54:12.028Z,9.60
2023-01-11T13:56:42.080Z,5.63
2023-01-11T13:59:11.111Z,5.37
2023-01-11T14:02:05.749Z,6.33
2023-01-11T14:05:16.860Z,6.03
2023-01-11T14:08:02.186Z,8.03
2023-01-11T14:10:31.919Z,7.60
2023-01-11T14:13:36.073Z,6.73
2023-01-11T14:16:09.025Z,4.90
2023-01-11T14:19:00.780Z,7.33
2023-01-11T14:21:34.457Z,5.10
2023-01-11T14:24:07.719Z,5.83
2023-01-11T14:26:57.613Z,6.93
2023-01-11T14:29:33.725Z,7.97
2023-01-11T14:35:02.564Z,6.80
2023-01-11T14:40:19.735Z,12.53
2023-01-11T14:45:56.165Z,50.67
2023-01-11T14:48:36.099Z,49.47
2023-01-11T14:51:25.938Z,47.50
2023-01-11T14:54:06.861Z,19.43
2023-01-11T14:56:45.004Z,6.13
2023-01-11T14:59:31.035Z,7.13
2023-01-11T15:02:03.787Z,9.07
2023-01-11T15:04:34.391Z,7.23
2023-01-11T15:07:01.635Z,11.87
2023-01-11T15:09:47.844Z,8.53
2023-01-11T15:12:15.654Z,11.47
2023-01-11T15:14:52.501Z,18.67
2023-01-11T15:17:39.412Z,23.33
2023-01-11T15:20:10.605Z,33.03
2023-01-11T15:22:38.132Z,48.47
2023-01-11T15:25:07.733Z,37.97
2023-01-11T15:27:36.812Z,18.57
2023-01-11T15:30:34.667Z,12.40
2023-01-11T15:33:57.661Z,8.73
2023-01-11T15:36:25.132Z,7.40
2023-01-11T15:39:03.687Z,11.17
2023-01-11T15:41:58.431Z,19.57
2023-01-11T15:44:52.527Z,20.77
2023-01-11T15:47:28.515Z,21.50
2023-01-11T15:50:27.288Z,17.63
2023-01-11T15:53:11.886Z,15.70
2023-01-11T15:56:16.116Z,11.47
2023-01-11T15:58:59.429Z,16.07
2023-01-11T16:01:28.591Z,12.43
2023-01-11T16:04:04.361Z,11.30
2023-01-11T16:06:43.721Z,15.17
2023-01-11T16:09:28.725Z,18.17
2023-01-11T16:12:16.018Z,15.53
2023-01-11T16:14:55.159Z,16.65
2023-01-11T16:17:22.848Z,14.83
2023-01-11T16:19:56.912Z,20.30
2023-01-11T16:22:28.252Z,19.63
2023-01-11T16:25:01.333Z,17.90
2023-01-11T16:27:30.560Z,12.00
2023-01-11T16:29:57.737Z,19.60
2023-01-11T16:32:34.908Z,18.53
2023-01-11T16:35:03.149Z,15.60
2023-01-11T16:37:43.565Z,19.23
2023-01-11T16:40:27.164Z,21.90
2023-01-11T16:42:59.833Z,17.13
2023-01-11T16:45:39.987Z,17.77
2023-01-11T16:48:17.172Z,16.00
2023-01-11T16:51:02.754Z,24.20
2023-01-11T16:53:33.722Z,17.07
2023-01-11T16:56:16.927Z,18.00
2023-01-11T16:58:44.560Z,19.20
2023-01-11T17:01:12.824Z,12.87
2023-01-11T17:03:48.556Z,18.40
2023-01-11T17:06:20.359Z,19.93
2023-01-11T17:08:52.328Z,16.13
2023-01-11T17:11:26.587Z,25.70
2023-01-11T17:14:11.836Z,20.47
2023-01-11T17:16:41.031Z,21.67
2023-01-11T17:19:38.797Z,15.80
2023-01-11T17:22:16.501Z,20.60
2023-01-11T17:24:50.212Z,17.93
2023-01-11T17:27:29.053Z,16.27
2023-01-11T17:29:57.241Z,16.83
2023-01-11T17:33:03.560Z,15.37
2023-01-11T17:35:36.525Z,17.40
2023-01-11T17:38:06.993Z,20.67
2023-01-11T17:40:40.918Z,17.57
2023-01-11T17:43:43.615Z,19.63
2023-01-11T17:46:20.603Z,19.93
2023-01-11T17:48:58.421Z,13.30
2023-01-11T17:51:31.534Z,17.43
2023-01-11T17:54:03.843Z,27.07
2023-01-11T17:56:43.511Z,17.13
2023-01-11T17:59:24.794Z,18.80
2023-01-11T18:01:57.690Z,18.40
2023-01-11T18:04:24.594Z,24.17
2023-01-11T18:06:53.793Z,27.20
2023-01-11T18:09:50.775Z,20.27
2023-01-11T18:12:22.135Z,24.53
2023-01-11T18:15:01.089Z,22.03
2023-01-11T18:17:28.077Z,23.70
2023-01-11T18:19:56.038Z,17.83
2023-01-11T18:22:32.372Z,21.20
2023-01-11T18:25:00.615Z,20.23
2023-01-11T18:27:54.263Z,21.93
2023-01-11T18:30:33.528Z,20.80
2023-01-11T18:33:02.115Z,21.13
2023-01-11T18:35:30.314Z,29.17
2023-01-11T18:37:58.707Z,28.90
2023-01-11T18:40:27.001Z,22.23
2023-01-11T18:42:54.759Z,28.63
2023-01-11T18:45:25.117Z,30.77
2023-01-11T18:47:52.761Z,27.67
2023-01-11T18:50:20.966Z,30.63
2023-01-11T18:52:48.710Z,25.10
2023-01-11T18:55:16.460Z,24.83
2023-01-11T18:57:44.445Z,20.97
2023-01-11T19:00:18.803Z,20.30
2023-01-11T19:02:46.933Z,18.40
2023-01-11T19:05:16.746Z,17.93
2023-01-11T19:07:44.141Z,23.13
2023-01-11T19:10:42.677Z,19.60
2023-01-11T19:13:09.859Z,18.57
2023-01-11T19:15:37.748Z,24.03
2023-01-11T19:18:05.955Z,21.10
2023-01-11T19:20:33.672Z,21.97
2023-01-11T19:23:01.825Z,21.97
2023-01-11T19:25:29.818Z,24.23
2023-01-11T19:27:57.809Z,25.60
2023-01-11T19:30:26.083Z,19.60
2023-01-11T19:32:53.400Z,23.37
2023-01-11T19:35:22.310Z,18.50
2023-01-11T19:37:52.918Z,20.00
2023-01-11T19:40:21.384Z,23.37
2023-01-11T19:42:52.657Z,19.67
2023-01-11T19:45:20.516Z,17.60
2023-01-11T19:47:48.273Z,28.20
2023-01-11T19:50:20.039Z,20.10
2023-01-11T19:52:49.377Z,21.00
2023-01-11T19:55:17.768Z,26.90
2023-01-11T19:57:45.388Z,22.10
2023-01-11T20:00:18.357Z,22.13
2023-01-11T20:02:45.955Z,20.33
2023-01-11T20:05:13.793Z,22.10
2023-01-11T20:07:41.804Z,19.67
2023-01-11T20:10:12.241Z,20.10
2023-01-11T20:12:39.890Z,22.70
2023-01-11T20:15:10.807Z,19.83
2023-01-11T20:17:38.608Z,23.23
2023-01-11T20:20:10.178Z,20.33
2023-01-11T20:22:37.886Z,21.90
2023-01-11T20:25:08.349Z,21.43
2023-01-11T20:27:36.459Z,22.90
2023-01-11T20:30:05.472Z,21.47
2023-01-11T20:32:41.598Z,28.80
2023-01-11T20:35:11.432Z,21.42
2023-01-11T20:37:39.142Z,22.97
2023-01-11T20:40:11.865Z,19.83
2023-01-11T20:42:41.310Z,23.27
2023-01-11T20:45:10.616Z,25.37
2023-01-11T20:47:38.606Z,22.77
2023-01-11T20:50:08.747Z,26.50
2023-01-11T20:52:36.811Z,25.13
2023-01-11T20:55:05.895Z,22.13
2023-01-11T20:57:34.006Z,24.97
2023-01-11T21:02:37.490Z,26.63
2023-01-11T21:05:06.786Z,21.30
2023-01-11T21:07:34.632Z,22.90
2023-01-11T21:10:02.398Z,22.63
2023-01-11T21:12:30.591Z,28.93
2023-01-11T21:14:58.292Z,20.43
2023-01-11T21:17:45.720Z,19.00
2023-01-11T21:20:14.556Z,21.53
2023-01-11T21:22:42.823Z,19.00
2023-01-11T21:25:11.598Z,21.43
2023-01-11T21:27:39.276Z,21.07
2023-01-11T21:30:10.472Z,19.10
2023-01-11T21:32:41.464Z,21.83
2023-01-11T21:35:10.679Z,21.47
2023-01-11T21:37:38.704Z,21.47
2023-01-11T21:40:10.062Z,27.07
2023-01-11T21:42:38.207Z,28.50
2023-01-11T21:45:09.121Z,22.60
2023-01-11T21:47:37.717Z,26.87
2023-01-11T21:50:09.951Z,22.77
2023-01-11T21:52:37.587Z,22.20
2023-01-11T21:55:07.768Z,27.93
2023-01-11T21:57:35.807Z,27.77
2023-01-11T22:00:05.662Z,26.07
2023-01-11T22:02:33.221Z,17.47
2023-01-11T22:05:01.336Z,22.60
2023-01-11T22:07:31.608Z,22.10
2023-01-11T22:10:04.945Z,18.50
2023-01-11T22:12:34.613Z,19.27
2023-01-11T22:15:02.190Z,19.90
2023-01-11T22:17:30.099Z,23.63
2023-01-11T22:19:58.173Z,16.70
2023-01-11T22:22:25.735Z,21.07
2023-01-11T22:24:56.612Z,19.53
2023-01-11T22:27:24.271Z,23.77
2023-01-11T22:29:52.279Z,28.83
2023-01-11T22:32:20.472Z,22.77
2023-01-11T22:34:48.202Z,23.07
2023-01-11T22:37:16.432Z,21.37
2023-01-11T22:39:44.066Z,20.20
2023-01-11T22:42:12.008Z,26.43
2023-01-11T22:44:40.004Z,21.87
2023-01-11T22:47:07.501Z,25.93
2023-01-11T22:49:35.811Z,23.27
2023-01-11T22:52:05.393Z,25.30
2023-01-11T22:54:33.449Z,21.47
2023-01-11T22:57:01.407Z,19.97
2023-01-11T22:59:28.967Z,24.87
2023-01-11T23:01:57.100Z,21.03
2023-01-11T23:04:25.378Z,19.80
2023-01-11T23:06:53.541Z,19.50
2023-01-11T23:09:22.229Z,19.97
2023-01-11T23:12:08.305Z,24.27
2023-01-11T23:14:36.302Z,20.30
2023-01-11T23:17:10.783Z,18.20
2023-01-11T23:19:40.709Z,17.80
2023-01-11T23:22:09.309Z,23.67
2023-01-11T23:24:37.532Z,20.23
2023-01-11T23:27:05.689Z,17.60
2023-01-11T23:29:33.618Z,13.57
2023-01-11T23:32:01.700Z,14.23
2023-01-11T23:34:30.157Z,13.77
2023-01-11T23:36:58.397Z,14.13
2023-01-11T23:39:25.907Z,16.17
2023-01-11T23:42:12.408Z,16.07
2023-01-11T23:44:40.417Z,11.30
2023-01-11T23:47:29.665Z,12.37
2023-01-11T23:49:57.426Z,12.23
2023-01-11T23:52:26.606Z,12.07
2023-01-11T23:54:54.315Z,15.93
2023-01-11T23:57:22.545Z,14.00
2023-01-11T23:59:49.885Z,11.93
